Time;durP1;ratioP1;P1;durP2;ratioP2;P2;SDS_P1;SDS_P2;PMS_P1;PMS_P2;Temp;Humidity;BMP_temperature;BMP_pressure;BME280_temperature;BME280_humidity;BME280_pressure;Samples;Min_cycle;Max_cycle;Signal;HPM_P1;HPM_P2
2023/12/02 00:00:06;;;;;;;16.60;10.40;;;;;;;;;;689018;28;1284;-65
2023/12/02 00:00:32;;;;;;;16.45;9.45;;;;;;;;;;688878;28;2174;-66
2023/12/02 00:00:52;;;;;;;16.73;9.93;;;;;;;;;;690015;28;1370;-66
2023/12/02 00:01:12;;;;;;;16.52;9.60;;;;;;;;;;689272;28;4381;-65
2023/12/02 00:01:32;;;;;;;15.50;9.53;;;;;;;;;;688340;28;2280;-65
2023/12/02 00:01:53;;;;;;;15.20;9.77;;;;;;;;;;689714;28;1198;-65
2023/12/02 00:02:13;;;;;;;16.63;9.98;;;;;;;;;;689123;28;1697;-65
2023/12/02 00:02:33;;;;;;;16.20;9.87;;;;;;;;;;689057;28;2509;-65
2023/12/02 00:02:53;;;;;;;15.80;9.87;;;;;;;;;;689824;28;1455;-65
2023/12/02 00:03:14;;;;;;;16.45;9.88;;;;;;;;;;686887;28;1334;-65
2023/12/02 00:03:34;;;;;;;16.30;10.03;;;;;;;;;;685120;28;1906;-65
2023/12/02 00:03:54;;;;;;;16.90;10.20;;;;;;;;;;684109;28;2013;-65
2023/12/02 00:04:15;;;;;;;15.33;9.60;;;;;;;;;;683399;28;4551;-65
2023/12/02 00:04:35;;;;;;;16.17;9.57;;;;;;;;;;683467;28;2282;-65
2023/12/02 00:04:56;;;;;;;16.45;10.15;;;;;;;;;;684331;28;1228;-65
2023/12/02 00:05:16;;;;;;;15.13;9.80;;;;;;;;;;686714;28;1282;-65
2023/12/02 00:05:37;;;;;;;16.80;10.13;;;;;;;;;;688711;28;1775;-65
2023/12/02 00:05:57;;;;;;;16.47;10.33;;;;;;;;;;690108;28;936;-65
2023/12/02 00:06:18;;;;;;;16.45;10.35;;;;;;;;;;689756;28;1112;-65
2023/12/02 00:06:39;;;;;;;16.00;10.13;;;;;;;;;;690170;28;2076;-65
2023/12/02 00:07:00;;;;;;;16.08;10.10;;;;;;;;;;689214;28;4344;-65
2023/12/02 00:07:21;;;;;;;17.08;10.77;;;;;;;;;;688912;28;2307;-66
2023/12/02 00:07:42;;;;;;;16.27;9.95;;;;;;;;;;688775;28;2261;-65
2023/12/02 00:08:04;;;;;;;17.45;10.32;;;;;;;;;;689943;28;1576;-66
2023/12/02 00:08:25;;;;;;;17.15;10.02;;;;;;;;;;687905;28;1086;-66
2023/12/02 00:08:46;;;;;;;16.48;10.60;;;;;;;;;;689043;28;900;-64
2023/12/02 00:09:07;;;;;;;15.68;10.05;;;;;;;;;;690116;28;1366;-65
2023/12/02 00:09:28;;;;;;;15.65;9.90;;;;;;;;;;689161;28;2428;-65
2023/12/02 00:09:49;;;;;;;16.38;10.75;;;;;;;;;;690935;28;997;-65
2023/12/02 00:10:12;;;;;;;17.10;10.48;;;;;;;;;;689033;28;4304;-65
2023/12/02 00:10:32;;;;;;;16.95;10.32;;;;;;;;;;689015;28;2168;-65
2023/12/02 00:10:52;;;;;;;15.10;9.63;;;;;;;;;;690784;28;1047;-65
2023/12/02 00:11:13;;;;;;;17.00;10.27;;;;;;;;;;690503;28;1408;-65
2023/12/02 00:11:33;;;;;;;16.05;10.10;;;;;;;;;;689161;28;1757;-65
2023/12/02 00:11:53;;;;;;;16.77;10.53;;;;;;;;;;690748;28;1217;-65
2023/12/02 00:12:14;;;;;;;16.83;10.43;;;;;;;;;;689915;28;866;-66
2023/12/02 00:12:34;;;;;;;17.00;10.57;;;;;;;;;;689125;28;2278;-65
2023/12/02 00:12:54;;;;;;;17.63;10.53;;;;;;;;;;690555;28;1424;-65
2023/12/02 00:13:14;;;;;;;16.47;9.97;;;;;;;;;;691274;28;4234;-65
2023/12/02 00:13:35;;;;;;;17.93;9.83;;;;;;;;;;688047;28;1750;-65
2023/12/02 00:13:55;;;;;;;18.53;10.37;;;;;;;;;;690279;28;968;-65
2023/12/02 00:14:15;;;;;;;16.10;10.17;;;;;;;;;;690262;28;1160;-65
2023/12/02 00:14:36;;;;;;;15.20;9.73;;;;;;;;;;689048;28;1827;-65
2023/12/02 00:14:56;;;;;;;16.47;10.40;;;;;;;;;;690290;28;1465;-65
2023/12/02 00:15:16;;;;;;;16.25;10.27;;;;;;;;;;690118;28;1182;-65
2023/12/02 00:15:37;;;;;;;14.67;9.80;;;;;;;;;;689695;28;2309;-65
2023/12/02 00:15:57;;;;;;;14.07;9.23;;;;;;;;;;690286;28;4652;-65
2023/12/02 00:16:17;;;;;;;14.93;9.40;;;;;;;;;;690169;28;1362;-65
2023/12/02 00:16:38;;;;;;;16.93;9.97;;;;;;;;;;689150;28;2409;-65
2023/12/02 00:16:58;;;;;;;16.25;9.60;;;;;;;;;;690253;28;889;-65
2023/12/02 00:17:19;;;;;;;15.30;9.60;;;;;;;;;;690832;28;955;-65
2023/12/02 00:17:39;;;;;;;15.53;9.63;;;;;;;;;;689447;28;2274;-65
2023/12/02 00:17:59;;;;;;;15.40;9.60;;;;;;;;;;689808;28;1038;-65
2023/12/02 00:18:20;;;;;;;16.25;9.90;;;;;;;;;;690562;28;1006;-65
2023/12/02 00:18:40;;;;;;;15.47;9.67;;;;;;;;;;689585;28;1742;-65
2023/12/02 00:19:01;;;;;;;15.10;9.40;;;;;;;;;;689922;28;4699;-65
2023/12/02 00:19:21;;;;;;;15.53;9.57;;;;;;;;;;688684;28;2524;-66
2023/12/02 00:19:41;;;;;;;15.75;9.82;;;;;;;;;;692269;28;920;-65
2023/12/02 00:20:02;;;;;;;15.60;9.77;;;;;;;;;;690277;28;967;-65
2023/12/02 00:20:22;;;;;;;16.30;10.20;;;;;;;;;;688853;28;1541;-65
2023/12/02 00:20:43;;;;;;;16.03;9.60;;;;;;;;;;690441;28;840;-66
2023/12/02 00:21:03;;;;;;;14.93;9.05;;;;;;;;;;690057;28;1381;-65
2023/12/02 00:21:23;;;;;;;15.00;9.57;;;;;;;;;;689205;28;1260;-65
2023/12/02 00:21:44;;;;;;;15.20;9.60;;;;;;;;;;690163;28;1324;-65
2023/12/02 00:22:06;;;;;;;15.17;9.43;;;;;;;;;;688802;28;4346;-65
2023/12/02 00:22:26;;;;;;;15.35;9.50;;;;;;;;;;686083;28;2353;-65
2023/12/02 00:22:46;;;;;;;16.07;9.63;;;;;;;;;;688528;28;1432;-65
2023/12/02 00:23:07;;;;;;;15.80;10.20;;;;;;;;;;687736;28;1355;-65
2023/12/02 00:23:27;;;;;;;14.67;9.57;;;;;;;;;;686323;28;3610;-65
2023/12/02 00:23:48;;;;;;;15.03;9.63;;;;;;;;;;687339;28;1974;-65
2023/12/02 00:24:08;;;;;;;15.52;9.63;;;;;;;;;;688104;28;915;-65
2023/12/02 00:24:28;;;;;;;16.10;10.03;;;;;;;;;;689446;28;1026;-65
2023/12/02 00:24:49;;;;;;;15.90;10.03;;;;;;;;;;690418;28;1334;-65
2023/12/02 00:25:09;;;;;;;15.93;9.60;;;;;;;;;;687643;28;4442;-65
2023/12/02 00:25:29;;;;;;;15.00;9.10;;;;;;;;;;689092;28;2172;-65
2023/12/02 00:25:49;;;;;;;15.57;9.63;;;;;;;;;;690121;28;904;-66
2023/12/02 00:26:10;;;;;;;15.13;9.67;;;;;;;;;;690548;28;896;-66
2023/12/02 00:26:32;;;;;;;14.95;9.07;;;;;;;;;;688472;28;2262;-66
2023/12/02 00:26:53;;;;;;;14.77;8.85;;;;;;;;;;688206;28;1241;-65
2023/12/02 00:27:13;;;;;;;14.80;9.10;;;;;;;;;;689870;28;1387;-65
2023/12/02 00:27:33;;;;;;;13.97;8.60;;;;;;;;;;687547;28;1739;-65
2023/12/02 00:27:54;;;;;;;14.77;8.82;;;;;;;;;;688595;28;1218;-65
2023/12/02 00:28:14;;;;;;;15.03;9.00;;;;;;;;;;687900;28;4470;-65
2023/12/02 00:28:34;;;;;;;14.33;8.77;;;;;;;;;;687090;28;985;-66
2023/12/02 00:28:55;;;;;;;13.30;8.57;;;;;;;;;;690788;28;1140;-65
2023/12/02 00:29:15;;;;;;;14.40;8.77;;;;;;;;;;691128;28;825;-65
2023/12/02 00:29:35;;;;;;;15.23;9.27;;;;;;;;;;688255;28;1721;-65
2023/12/02 00:29:55;;;;;;;15.60;9.13;;;;;;;;;;690013;28;881;-65
2023/12/02 00:30:16;;;;;;;15.00;8.87;;;;;;;;;;690473;28;1544;-65
2023/12/02 00:30:36;;;;;;;15.18;8.60;;;;;;;;;;688268;28;2218;-65
2023/12/02 00:30:56;;;;;;;15.17;8.70;;;;;;;;;;689774;28;4258;-65
2023/12/02 00:31:17;;;;;;;14.52;8.95;;;;;;;;;;690570;28;1140;-65
2023/12/02 00:31:37;;;;;;;14.87;8.90;;;;;;;;;;689184;28;2550;-65
2023/12/02 00:31:57;;;;;;;14.13;8.83;;;;;;;;;;690639;28;970;-65
2023/12/02 00:32:17;;;;;;;15.13;9.10;;;;;;;;;;689707;28;1257;-64
2023/12/02 00:32:38;;;;;;;15.30;9.03;;;;;;;;;;689023;28;880;-65
2023/12/02 00:32:58;;;;;;;14.80;9.07;;;;;;;;;;689937;28;932;-65
2023/12/02 00:33:18;;;;;;;15.70;8.60;;;;;;;;;;690546;28;829;-65
2023/12/02 00:33:39;;;;;;;15.57;8.53;;;;;;;;;;689349;28;1563;-65
2023/12/02 00:33:59;;;;;;;15.47;9.03;;;;;;;;;;689896;28;4439;-65
2023/12/02 00:34:19;;;;;;;15.60;9.10;;;;;;;;;;690835;28;877;-65
2023/12/02 00:34:40;;;;;;;14.80;8.87;;;;;;;;;;688753;28;1733;-65
2023/12/02 00:35:00;;;;;;;14.20;8.67;;;;;;;;;;690472;28;873;-65
2023/12/02 00:35:20;;;;;;;15.00;9.00;;;;;;;;;;690803;28;919;-65
2023/12/02 00:35:40;;;;;;;15.20;8.67;;;;;;;;;;689166;28;2345;-65
2023/12/02 00:36:01;;;;;;;14.70;9.05;;;;;;;;;;690103;28;910;-65
2023/12/02 00:36:21;;;;;;;14.63;8.90;;;;;;;;;;690754;28;927;-65
2023/12/02 00:36:44;;;;;;;14.97;8.90;;;;;;;;;;689459;28;2514;-69
2023/12/02 00:37:05;;;;;;;14.43;8.60;;;;;;;;;;689963;28;4331;-65
2023/12/02 00:37:25;;;;;;;15.03;8.63;;;;;;;;;;689336;28;2222;-66
2023/12/02 00:37:45;;;;;;;14.63;8.63;;;;;;;;;;688160;28;2197;-65
2023/12/02 00:38:05;;;;;;;13.97;8.63;;;;;;;;;;690505;28;916;-65
2023/12/02 00:38:26;;;;;;;14.70;8.57;;;;;;;;;;689664;28;1563;-65
2023/12/02 00:38:47;;;;;;;14.27;9.02;;;;;;;;;;690272;28;1126;-65
2023/12/02 00:39:07;;;;;;;14.20;8.53;;;;;;;;;;689862;28;1126;-65
2023/12/02 00:39:27;;;;;;;14.68;8.75;;;;;;;;;;688781;28;1089;-65
2023/12/02 00:39:48;;;;;;;13.80;8.40;;;;;;;;;;686396;28;1276;-65
2023/12/02 00:40:08;;;;;;;14.07;8.48;;;;;;;;;;687092;28;4325;-64
2023/12/02 00:40:28;;;;;;;14.97;9.03;;;;;;;;;;686832;28;2186;-65
2023/12/02 00:40:49;;;;;;;12.77;8.07;;;;;;;;;;687734;28;973;-65
2023/12/02 00:41:10;;;;;;;14.63;8.47;;;;;;;;;;687244;28;1252;-65
2023/12/02 00:41:30;;;;;;;15.00;8.70;;;;;;;;;;688628;28;2200;-64
2023/12/02 00:41:51;;;;;;;15.07;8.57;;;;;;;;;;689899;28;940;-65
2023/12/02 00:42:11;;;;;;;13.73;8.40;;;;;;;;;;690924;28;6023;-65
2023/12/02 00:42:31;;;;;;;13.57;8.23;;;;;;;;;;689253;28;1516;-64
2023/12/02 00:42:51;;;;;;;13.23;8.00;;;;;;;;;;690854;28;822;-65
2023/12/02 00:43:12;;;;;;;13.20;7.63;;;;;;;;;;689676;28;4371;-65
2023/12/02 00:43:32;;;;;;;14.05;8.20;;;;;;;;;;689504;28;2388;-65
2023/12/02 00:43:52;;;;;;;14.47;8.70;;;;;;;;;;690737;28;1922;-65
2023/12/02 00:44:13;;;;;;;14.20;8.33;;;;;;;;;;689466;28;1189;-65
2023/12/02 00:44:33;;;;;;;14.45;8.55;;;;;;;;;;689396;28;2318;-65
2023/12/02 00:44:54;;;;;;;14.07;8.20;;;;;;;;;;690884;28;888;-65
2023/12/02 00:45:14;;;;;;;14.18;8.35;;;;;;;;;;690039;28;1449;-65
2023/12/02 00:45:34;;;;;;;12.87;7.93;;;;;;;;;;689106;28;1602;-65
2023/12/02 00:45:55;;;;;;;12.35;7.72;;;;;;;;;;689938;28;964;-65
2023/12/02 00:46:15;;;;;;;14.27;8.30;;;;;;;;;;689732;28;4320;-64
2023/12/02 00:46:35;;;;;;;13.67;8.33;;;;;;;;;;688833;28;1915;-64
2023/12/02 00:46:56;;;;;;;13.70;8.32;;;;;;;;;;690665;28;828;-65
2023/12/02 00:47:16;;;;;;;14.33;8.47;;;;;;;;;;690134;28;971;-65
2023/12/02 00:47:36;;;;;;;13.80;8.60;;;;;;;;;;688988;28;2498;-65
2023/12/02 00:47:56;;;;;;;13.33;8.40;;;;;;;;;;690750;28;915;-63
2023/12/02 00:48:17;;;;;;;14.23;8.37;;;;;;;;;;690526;28;853;-65
2023/12/02 00:48:37;;;;;;;14.43;8.55;;;;;;;;;;689041;28;2322;-65
2023/12/02 00:48:58;;;;;;;13.70;8.50;;;;;;;;;;690035;28;4351;-65
2023/12/02 00:49:18;;;;;;;14.77;8.43;;;;;;;;;;688508;28;1289;-65
2023/12/02 00:49:38;;;;;;;14.77;8.17;;;;;;;;;;688836;28;2307;-65
2023/12/02 00:49:58;;;;;;;15.03;8.13;;;;;;;;;;689489;28;813;-65
2023/12/02 00:50:19;;;;;;;14.50;8.30;;;;;;;;;;690434;28;904;-65
2023/12/02 00:50:39;;;;;;;13.10;8.00;;;;;;;;;;688628;28;1347;-65
2023/12/02 00:50:59;;;;;;;13.37;8.50;;;;;;;;;;690621;28;1008;-64
2023/12/02 00:51:20;;;;;;;14.47;9.00;;;;;;;;;;690396;28;970;-65
2023/12/02 00:51:40;;;;;;;15.33;9.17;;;;;;;;;;688719;28;2542;-65
2023/12/02 00:52:00;;;;;;;15.13;8.80;;;;;;;;;;689920;28;4362;-65
2023/12/02 00:52:20;;;;;;;16.17;9.47;;;;;;;;;;690336;28;1105;-65
2023/12/02 00:52:41;;;;;;;14.43;8.83;;;;;;;;;;685914;28;1617;-65
2023/12/02 00:53:01;;;;;;;14.93;9.07;;;;;;;;;;686935;28;1384;-65
2023/12/02 00:53:21;;;;;;;14.83;8.90;;;;;;;;;;687347;28;834;-65
2023/12/02 00:53:42;;;;;;;13.90;8.50;;;;;;;;;;686083;28;1242;-65
2023/12/02 00:54:02;;;;;;;14.15;8.13;;;;;;;;;;690310;28;853;-65
2023/12/02 00:54:22;;;;;;;14.23;8.57;;;;;;;;;;688887;28;1613;-65
2023/12/02 00:54:43;;;;;;;15.50;8.77;;;;;;;;;;687748;28;2345;-65
2023/12/02 00:55:03;;;;;;;13.60;8.67;;;;;;;;;;688743;28;4432;-65
2023/12/02 00:55:24;;;;;;;13.50;8.25;;;;;;;;;;689253;28;2257;-65
2023/12/02 00:55:44;;;;;;;14.57;8.60;;;;;;;;;;689441;28;1280;-65
2023/12/02 00:56:05;;;;;;;14.50;8.63;;;;;;;;;;690507;28;1452;-65
2023/12/02 00:56:25;;;;;;;15.23;8.90;;;;;;;;;;686565;28;1744;-65
2023/12/02 00:56:45;;;;;;;13.27;8.27;;;;;;;;;;689587;28;1179;-65
2023/12/02 00:57:05;;;;;;;13.57;8.63;;;;;;;;;;690157;28;996;-65
2023/12/02 00:57:26;;;;;;;14.73;8.93;;;;;;;;;;688758;28;1867;-65
2023/12/02 00:57:46;;;;;;;14.95;8.85;;;;;;;;;;687605;28;825;-65
2023/12/02 00:58:06;;;;;;;14.23;8.33;;;;;;;;;;688556;28;4350;-65
2023/12/02 00:58:26;;;;;;;12.43;7.50;;;;;;;;;;688823;28;2477;-65
2023/12/02 00:58:47;;;;;;;14.55;8.50;;;;;;;;;;690384;28;1420;-66
2023/12/02 00:59:07;;;;;;;13.40;7.97;;;;;;;;;;690467;28;912;-65
2023/12/02 00:59:27;;;;;;;12.23;7.30;;;;;;;;;;689096;28;2493;-65
2023/12/02 00:59:48;;;;;;;12.57;7.53;;;;;;;;;;688494;28;1315;-65
2023/12/02 01:00:08;;;;;;;12.40;7.73;;;;;;;;;;689829;28;1198;-65
2023/12/02 01:00:29;;;;;;;12.43;7.65;;;;;;;;;;689173;28;2804;-65
2023/12/02 01:00:49;;;;;;;12.90;7.50;;;;;;;;;;690823;28;867;-65
2023/12/02 01:01:09;;;;;;;13.63;8.40;;;;;;;;;;689829;28;4527;-64
2023/12/02 01:01:30;;;;;;;12.90;7.90;;;;;;;;;;689505;28;2224;-65
2023/12/02 01:01:50;;;;;;;12.70;7.90;;;;;;;;;;690489;28;1386;-65
2023/12/02 01:02:10;;;;;;;13.10;7.85;;;;;;;;;;690040;28;947;-65
2023/12/02 01:02:31;;;;;;;13.37;7.70;;;;;;;;;;689037;28;2027;-65
2023/12/02 01:02:51;;;;;;;13.30;7.90;;;;;;;;;;690553;28;1135;-64
2023/12/02 01:03:12;;;;;;;12.70;7.72;;;;;;;;;;690251;28;794;-65
2023/12/02 01:03:32;;;;;;;14.30;8.03;;;;;;;;;;688041;28;2282;-65
2023/12/02 01:03:52;;;;;;;13.83;8.23;;;;;;;;;;690241;28;1971;-65
2023/12/02 01:04:13;;;;;;;13.40;8.13;;;;;;;;;;689363;28;4360;-65
2023/12/02 01:04:33;;;;;;;13.97;8.33;;;;;;;;;;689542;28;2670;-65
2023/12/02 01:04:54;;;;;;;13.98;8.32;;;;;;;;;;690829;28;932;-65
2023/12/02 01:05:14;;;;;;;14.07;8.37;;;;;;;;;;689856;28;1425;-64
2023/12/02 01:05:34;;;;;;;14.00;8.60;;;;;;;;;;689287;28;1691;-64
2023/12/02 01:05:55;;;;;;;13.20;8.17;;;;;;;;;;690578;28;913;-65
2023/12/02 01:06:15;;;;;;;13.33;8.37;;;;;;;;;;690008;28;881;-65
2023/12/02 01:06:35;;;;;;;13.82;8.68;;;;;;;;;;689436;28;1240;-64
2023/12/02 01:06:55;;;;;;;15.40;9.10;;;;;;;;;;688523;28;1307;-65
2023/12/02 01:07:16;;;;;;;14.10;8.33;;;;;;;;;;684969;28;4300;-65
2023/12/02 01:07:36;;;;;;;13.23;7.97;;;;;;;;;;686734;28;2329;-65
2023/12/02 01:07:56;;;;;;;13.90;8.07;;;;;;;;;;687780;28;826;-64
2023/12/02 01:08:17;;;;;;;13.63;8.27;;;;;;;;;;683997;28;1165;-65
2023/12/02 01:08:37;;;;;;;14.10;8.60;;;;;;;;;;686126;28;2301;-65
2023/12/02 01:08:57;;;;;;;13.57;8.20;;;;;;;;;;684220;28;833;-64
2023/12/02 01:09:18;;;;;;;14.02;8.98;;;;;;;;;;683431;28;929;-65
2023/12/02 01:09:38;;;;;;;15.93;9.17;;;;;;;;;;683314;28;2487;-65
2023/12/02 01:09:58;;;;;;;14.00;8.20;;;;;;;;;;682765;28;4503;-65
2023/12/02 01:10:19;;;;;;;13.68;8.20;;;;;;;;;;687189;28;970;-65
2023/12/02 01:10:39;;;;;;;12.63;8.03;;;;;;;;;;686048;28;2231;-65
2023/12/02 01:10:59;;;;;;;12.73;7.82;;;;;;;;;;692030;28;865;-64
2023/12/02 01:11:19;;;;;;;13.80;7.90;;;;;;;;;;692386;28;915;-65
2023/12/02 01:11:40;;;;;;;13.97;8.60;;;;;;;;;;691721;28;1546;-65
2023/12/02 01:12:00;;;;;;;13.63;8.07;;;;;;;;;;690005;28;995;-64
2023/12/02 01:12:21;;;;;;;13.87;8.27;;;;;;;;;;690157;28;861;-65
2023/12/02 01:12:41;;;;;;;13.63;8.35;;;;;;;;;;690730;28;1665;-65
2023/12/02 01:13:02;;;;;;;13.17;8.53;;;;;;;;;;690333;28;4250;-65
2023/12/02 01:13:22;;;;;;;13.05;8.43;;;;;;;;;;690564;28;1098;-65
2023/12/02 01:13:43;;;;;;;14.77;8.57;;;;;;;;;;688055;28;1767;-65
2023/12/02 01:14:03;;;;;;;14.67;8.70;;;;;;;;;;690737;28;896;-65
2023/12/02 01:14:25;;;;;;;12.27;7.83;;;;;;;;;;690594;28;1335;-65
2023/12/02 01:14:45;;;;;;;13.05;8.25;;;;;;;;;;689847;28;1174;-65
2023/12/02 01:15:06;;;;;;;13.57;8.50;;;;;;;;;;690220;28;1260;-65
2023/12/02 01:15:26;;;;;;;13.83;8.47;;;;;;;;;;689296;28;2581;-65
2023/12/02 01:15:46;;;;;;;13.90;8.17;;;;;;;;;;690381;28;805;-65
2023/12/02 01:16:07;;;;;;;14.43;8.13;;;;;;;;;;690096;28;4531;-65
2023/12/02 01:16:28;;;;;;;14.23;8.32;;;;;;;;;;688335;28;1326;-65
2023/12/02 01:16:48;;;;;;;14.80;8.75;;;;;;;;;;690050;28;944;-65
2023/12/02 01:17:09;;;;;;;13.07;8.23;;;;;;;;;;689595;28;1639;-65
2023/12/02 01:17:29;;;;;;;14.02;8.75;;;;;;;;;;689388;28;924;-65
2023/12/02 01:17:49;;;;;;;13.87;8.70;;;;;;;;;;689965;28;805;-65
2023/12/02 01:18:10;;;;;;;13.88;8.57;;;;;;;;;;690371;28;1358;-65
2023/12/02 01:18:30;;;;;;;13.73;8.67;;;;;;;;;;688511;28;1721;-65
2023/12/02 01:18:50;;;;;;;13.27;8.30;;;;;;;;;;689608;28;1361;-65
2023/12/02 01:19:10;;;;;;;13.75;8.52;;;;;;;;;;689667;28;4312;-65
2023/12/02 01:19:31;;;;;;;13.43;8.33;;;;;;;;;;688766;28;1453;-65
2023/12/02 01:19:51;;;;;;;13.80;8.13;;;;;;;;;;689029;28;4218;-65
2023/12/02 01:20:11;;;;;;;13.50;8.30;;;;;;;;;;690495;28;865;-65
2023/12/02 01:20:31;;;;;;;13.20;8.87;;;;;;;;;;688093;28;2282;-65
2023/12/02 01:20:52;;;;;;;14.60;8.97;;;;;;;;;;689778;28;917;-65
2023/12/02 01:21:12;;;;;;;14.60;9.05;;;;;;;;;;690460;28;1199;-65
2023/12/02 01:21:32;;;;;;;13.77;8.37;;;;;;;;;;690268;28;2702;-65
2023/12/02 01:21:53;;;;;;;13.67;8.37;;;;;;;;;;690248;28;932;-65
2023/12/02 01:22:13;;;;;;;15.80;8.88;;;;;;;;;;689160;28;4547;-65
2023/12/02 01:22:33;;;;;;;15.30;9.17;;;;;;;;;;689865;28;1169;-65
2023/12/02 01:22:54;;;;;;;15.85;9.57;;;;;;;;;;689728;28;1164;-65
2023/12/02 01:23:14;;;;;;;18.57;11.33;;;;;;;;;;690107;28;923;-65
2023/12/02 01:23:34;;;;;;;20.23;12.23;;;;;;;;;;690130;28;2644;-65
2023/12/02 01:23:55;;;;;;;18.60;10.60;;;;;;;;;;689792;28;1978;-65
2023/12/02 01:24:15;;;;;;;17.07;10.13;;;;;;;;;;689571;28;770;-65
2023/12/02 01:24:35;;;;;;;15.88;9.30;;;;;;;;;;689353;28;1513;-64
2023/12/02 01:24:55;;;;;;;14.73;9.07;;;;;;;;;;690013;28;832;-65
2023/12/02 01:25:16;;;;;;;15.90;9.77;;;;;;;;;;689377;28;4344;-64
2023/12/02 01:25:36;;;;;;;16.83;10.07;;;;;;;;;;688674;28;2284;-65
2023/12/02 01:25:56;;;;;;;15.60;9.73;;;;;;;;;;690428;28;1267;-65
2023/12/02 01:26:17;;;;;;;16.70;9.67;;;;;;;;;;690070;28;881;-65
2023/12/02 01:26:37;;;;;;;15.48;9.07;;;;;;;;;;689365;28;1818;-65
2023/12/02 01:26:57;;;;;;;14.33;8.73;;;;;;;;;;690190;28;897;-65
2023/12/02 01:27:17;;;;;;;14.60;9.37;;;;;;;;;;689240;28;1854;-65
2023/12/02 01:27:38;;;;;;;14.83;8.70;;;;;;;;;;689115;28;2242;-65
2023/12/02 01:27:58;;;;;;;15.53;9.07;;;;;;;;;;688726;28;4476;-65
2023/12/02 01:28:19;;;;;;;15.38;9.55;;;;;;;;;;690233;28;813;-67
2023/12/02 01:28:39;;;;;;;16.53;10.07;;;;;;;;;;689252;28;2566;-65
2023/12/02 01:28:59;;;;;;;17.13;10.50;;;;;;;;;;690053;28;1470;-65
2023/12/02 01:29:19;;;;;;;16.57;9.87;;;;;;;;;;689698;28;1282;-66
2023/12/02 01:29:40;;;;;;;14.87;8.50;;;;;;;;;;689160;28;1214;-66
2023/12/02 01:30:00;;;;;;;13.47;8.33;;;;;;;;;;690573;28;853;-65
2023/12/02 01:30:20;;;;;;;12.90;8.10;;;;;;;;;;690026;28;987;-65
2023/12/02 01:30:41;;;;;;;13.07;8.10;;;;;;;;;;687829;28;2055;-65
2023/12/02 01:31:01;;;;;;;12.40;8.00;;;;;;;;;;689772;28;4292;-65
2023/12/02 01:31:21;;;;;;;14.03;8.00;;;;;;;;;;689830;28;942;-65
2023/12/02 01:31:41;;;;;;;12.80;7.73;;;;;;;;;;688665;28;2302;-65
2023/12/02 01:32:02;;;;;;;15.63;10.00;;;;;;;;;;690472;28;904;-65
2023/12/02 01:32:22;;;;;;;16.50;10.60;;;;;;;;;;688541;28;1179;-65
2023/12/02 01:32:42;;;;;;;21.40;12.90;;;;;;;;;;687884;28;1191;-65
2023/12/02 01:33:02;;;;;;;36.63;22.30;;;;;;;;;;690140;28;944;-65
2023/12/02 01:33:23;;;;;;;38.97;20.93;;;;;;;;;;690163;28;1139;-65
2023/12/02 01:33:43;;;;;;;39.60;20.93;;;;;;;;;;689237;28;2316;-65
2023/12/02 01:34:03;;;;;;;35.60;19.33;;;;;;;;;;689708;28;4370;-65
2023/12/02 01:34:24;;;;;;;33.47;18.30;;;;;;;;;;690168;28;1247;-65
2023/12/02 01:34:45;;;;;;;28.83;16.70;;;;;;;;;;688009;28;2872;-65
2023/12/02 01:35:05;;;;;;;28.23;16.25;;;;;;;;;;690369;28;992;-65
2023/12/02 01:35:26;;;;;;;23.50;13.85;;;;;;;;;;689393;28;2692;-65
2023/12/02 01:35:46;;;;;;;19.30;11.73;;;;;;;;;;687946;28;1230;-65
2023/12/02 01:36:11;;;;;;;16.08;9.57;;;;;;;;;;690544;28;1190;-65
2023/12/02 01:36:31;;;;;;;13.38;8.50;;;;;;;;;;690186;28;984;-65
2023/12/02 01:36:51;;;;;;;18.03;10.83;;;;;;;;;;690464;28;861;-65
2023/12/02 01:37:12;;;;;;;23.50;13.75;;;;;;;;;;689583;28;4334;-65
2023/12/02 01:37:32;;;;;;;19.23;11.43;;;;;;;;;;688644;28;2165;-65
2023/12/02 01:37:52;;;;;;;14.43;8.97;;;;;;;;;;689060;28;2525;-65
2023/12/02 01:38:12;;;;;;;32.38;18.42;;;;;;;;;;691204;28;952;-65
2023/12/02 01:38:33;;;;;;;34.70;20.03;;;;;;;;;;688149;28;1468;-65
2023/12/02 01:38:53;;;;;;;26.30;15.37;;;;;;;;;;690138;28;1142;-65
2023/12/02 01:39:14;;;;;;;25.70;15.50;;;;;;;;;;689104;28;1313;-65
2023/12/02 01:39:34;;;;;;;29.25;17.10;;;;;;;;;;688527;28;1812;-65
2023/12/02 01:39:54;;;;;;;25.30;16.00;;;;;;;;;;687159;28;1137;-65
2023/12/02 01:40:15;;;;;;;28.42;16.83;;;;;;;;;;687035;28;4378;-64
2023/12/02 01:40:35;;;;;;;43.77;22.33;;;;;;;;;;686424;28;1138;-65
2023/12/02 01:40:55;;;;;;;50.77;26.63;;;;;;;;;;687578;28;874;-65
2023/12/02 01:41:16;;;;;;;31.15;17.23;;;;;;;;;;686854;28;1227;-65
2023/12/02 01:41:36;;;;;;;36.77;18.83;;;;;;;;;;686241;28;2409;-65
2023/12/02 01:41:57;;;;;;;56.53;29.15;;;;;;;;;;690176;28;908;-65
2023/12/02 01:42:18;;;;;;;73.47;37.57;;;;;;;;;;689949;28;5790;-65
2023/12/02 01:42:38;;;;;;;76.72;39.80;;;;;;;;;;688236;28;2198;-65
2023/12/02 01:43:01;;;;;;;89.03;44.13;;;;;;;;;;689522;28;4338;-65
2023/12/02 01:43:25;;;;;;;68.72;34.42;;;;;;;;;;690517;28;1422;-65
2023/12/02 01:43:45;;;;;;;60.33;31.52;;;;;;;;;;689099;28;2279;-65
2023/12/02 01:44:06;;;;;;;61.13;32.63;;;;;;;;;;689949;28;1128;-65
2023/12/02 01:44:26;;;;;;;50.42;26.52;;;;;;;;;;690605;28;896;-65
2023/12/02 01:44:46;;;;;;;39.33;22.17;;;;;;;;;;690359;28;908;-65
2023/12/02 01:45:07;;;;;;;28.33;15.73;;;;;;;;;;690458;28;829;-65
2023/12/02 01:45:28;;;;;;;16.17;9.52;;;;;;;;;;689347;28;2250;-65
2023/12/02 01:45:48;;;;;;;15.87;9.33;;;;;;;;;;690006;28;951;-65
2023/12/02 01:46:08;;;;;;;14.35;8.95;;;;;;;;;;689966;28;4563;-65
2023/12/02 01:46:29;;;;;;;13.97;9.20;;;;;;;;;;689441;28;2208;-65
2023/12/02 01:46:50;;;;;;;14.35;8.90;;;;;;;;;;690567;28;936;-65
2023/12/02 01:47:10;;;;;;;14.63;8.47;;;;;;;;;;689897;28;965;-65
2023/12/02 01:47:31;;;;;;;14.18;8.23;;;;;;;;;;683445;28;2258;-65
2023/12/02 01:47:51;;;;;;;14.47;8.90;;;;;;;;;;684524;28;873;-65
2023/12/02 01:48:11;;;;;;;16.45;9.90;;;;;;;;;;684840;28;814;-65
2023/12/02 01:48:33;;;;;;;14.53;9.00;;;;;;;;;;683623;28;1840;-65
2023/12/02 01:48:54;;;;;;;13.98;8.50;;;;;;;;;;682826;28;917;-65
2023/12/02 01:49:14;;;;;;;13.63;8.52;;;;;;;;;;684214;28;4281;-65
2023/12/02 01:49:35;;;;;;;13.67;8.60;;;;;;;;;;688721;28;1480;-65
2023/12/02 01:49:57;;;;;;;13.40;8.25;;;;;;;;;;690082;28;903;-65
2023/12/02 01:50:17;;;;;;;13.48;8.48;;;;;;;;;;686213;28;892;-65
2023/12/02 01:50:38;;;;;;;13.90;8.40;;;;;;;;;;684548;28;1869;-65
2023/12/02 01:50:58;;;;;;;14.07;8.20;;;;;;;;;;688062;28;1174;-65
2023/12/02 01:51:19;;;;;;;13.65;8.48;;;;;;;;;;688117;28;809;-65
2023/12/02 01:51:40;;;;;;;13.02;8.18;;;;;;;;;;687233;28;2608;-65
2023/12/02 01:52:01;;;;;;;12.90;7.73;;;;;;;;;;688096;28;4524;-65
2023/12/02 01:52:21;;;;;;;13.15;7.80;;;;;;;;;;690147;28;1446;-65
2023/12/02 01:52:42;;;;;;;13.33;8.83;;;;;;;;;;688744;28;2506;-65
2023/12/02 01:53:02;;;;;;;13.47;8.33;;;;;;;;;;690355;28;905;-65
2023/12/02 01:53:23;;;;;;;12.68;7.80;;;;;;;;;;690251;28;743;-65
2023/12/02 01:53:43;;;;;;;13.38;8.10;;;;;;;;;;690414;28;2058;-65
2023/12/02 01:54:04;;;;;;;14.53;8.33;;;;;;;;;;689936;28;1420;-65
2023/12/02 01:54:24;;;;;;;12.65;8.00;;;;;;;;;;690392;28;790;-65
2023/12/02 01:54:45;;;;;;;13.03;8.13;;;;;;;;;;688584;28;2387;-65
2023/12/02 01:55:06;;;;;;;13.43;8.07;;;;;;;;;;690053;28;4666;-65
2023/12/02 01:55:26;;;;;;;12.95;8.23;;;;;;;;;;690018;28;1052;-65
2023/12/02 01:55:47;;;;;;;12.10;8.05;;;;;;;;;;688726;28;1196;-65
2023/12/02 01:56:07;;;;;;;12.77;7.73;;;;;;;;;;690363;28;1380;-65
2023/12/02 01:56:28;;;;;;;11.98;7.47;;;;;;;;;;689400;28;2408;-65
2023/12/02 01:56:48;;;;;;;12.03;8.00;;;;;;;;;;689595;28;820;-65
2023/12/02 01:57:21;;;;;;;11.88;7.72;;;;;;;;;;690504;28;873;-65
2023/12/02 01:57:42;;;;;;;11.57;7.60;;;;;;;;;;688258;28;1854;-65
2023/12/02 01:58:02;;;;;;;12.93;7.63;;;;;;;;;;686625;28;4375;-65
2023/12/02 01:58:23;;;;;;;13.43;8.30;;;;;;;;;;687360;28;805;-65
2023/12/02 01:58:43;;;;;;;12.83;8.37;;;;;;;;;;686424;28;1087;-65
2023/12/02 01:59:03;;;;;;;13.83;8.30;;;;;;;;;;687548;28;806;-65
2023/12/02 01:59:23;;;;;;;12.87;7.80;;;;;;;;;;686738;28;1301;-65
2023/12/02 01:59:54;;;;;;;13.40;8.13;;;;;;;;;;685992;28;2249;-65
2023/12/02 02:00:14;;;;;;;13.38;8.05;;;;;;;;;;685789;28;2205;-65
2023/12/02 02:00:34;;;;;;;13.00;7.83;;;;;;;;;;687045;28;2512;-65
2023/12/02 02:00:55;;;;;;;12.63;8.25;;;;;;;;;;685228;28;1341;-65
2023/12/02 02:01:15;;;;;;;13.33;8.50;;;;;;;;;;686963;28;4298;-65
2023/12/02 02:01:35;;;;;;;12.35;7.93;;;;;;;;;;687198;28;1207;-65
2023/12/02 02:01:56;;;;;;;12.70;8.37;;;;;;;;;;686925;28;1554;-65
2023/12/02 02:02:16;;;;;;;13.97;8.33;;;;;;;;;;689776;28;1247;-65
2023/12/02 02:02:36;;;;;;;13.02;8.07;;;;;;;;;;686279;28;2335;-65
2023/12/02 02:02:56;;;;;;;12.63;7.93;;;;;;;;;;687304;28;1089;-65
2023/12/02 02:03:17;;;;;;;13.90;8.43;;;;;;;;;;687387;28;1149;-65
2023/12/02 02:03:37;;;;;;;14.00;8.52;;;;;;;;;;686158;28;1449;-65
2023/12/02 02:03:59;;;;;;;13.43;8.23;;;;;;;;;;686673;28;4392;-65
2023/12/02 02:04:19;;;;;;;12.57;8.10;;;;;;;;;;688646;28;1149;-65
2023/12/02 02:04:39;;;;;;;13.30;7.90;;;;;;;;;;688551;28;1693;-65
2023/12/02 02:05:00;;;;;;;12.38;7.55;;;;;;;;;;689491;28;1124;-65